createdAt,value
2022-12-09T00:01:07.584Z,25.13
2022-12-09T00:03:35.617Z,23.55
2022-12-09T00:06:16.025Z,26.02
2022-12-09T00:08:44.637Z,27.08
2022-12-09T00:11:12.763Z,25.25
2022-12-09T00:13:40.414Z,22.48
2022-12-09T00:16:10.843Z,22.38
2022-12-09T00:18:39.204Z,23.35
2022-12-09T00:21:14.646Z,23.52
2022-12-09T00:23:42.389Z,21.52
2022-12-09T00:26:09.945Z,23.35
2022-12-09T00:28:38.190Z,25.88
2022-12-09T00:31:06.817Z,21.60
2022-12-09T00:33:35.269Z,21.23
2022-12-09T00:36:06.323Z,21.55
2022-12-09T00:38:34.059Z,22.65
2022-12-09T00:41:02.527Z,21.15
2022-12-09T00:43:30.280Z,21.13
2022-12-09T00:45:58.198Z,24.55
2022-12-09T00:48:26.725Z,23.40
2022-12-09T00:50:54.958Z,23.10
2022-12-09T00:53:22.950Z,22.05
2022-12-09T00:55:50.646Z,21.58
2022-12-09T00:58:18.618Z,20.85
2022-12-09T01:00:46.484Z,21.00
2022-12-09T01:03:16.179Z,21.13
2022-12-09T01:05:44.465Z,21.25
2022-12-09T01:08:13.166Z,22.98
2022-12-09T01:10:43.040Z,21.10
2022-12-09T01:13:12.581Z,17.55
2022-12-09T01:15:40.852Z,19.58
2022-12-09T01:18:09.085Z,20.58
2022-12-09T01:20:36.539Z,21.15
2022-12-09T01:25:31.311Z,21.00
2022-12-09T01:27:59.126Z,20.58
2022-12-09T01:30:26.645Z,19.73
2022-12-09T01:35:22.269Z,18.98
2022-12-09T01:37:50.142Z,20.38
2022-12-09T01:40:19.003Z,22.40
2022-12-09T01:42:46.905Z,19.23
2022-12-09T01:45:22.036Z,15.98
2022-12-09T01:48:11.337Z,19.23
2022-12-09T01:50:47.423Z,19.52
2022-12-09T01:53:17.359Z,18.77
2022-12-09T01:55:45.672Z,18.70
2022-12-09T01:58:14.490Z,19.25
2022-12-09T02:00:42.903Z,18.30
2022-12-09T02:03:10.659Z,18.92
2022-12-09T02:05:38.653Z,19.00
2022-12-09T02:08:18.721Z,20.45
2022-12-09T02:11:15.613Z,18.65
2022-12-09T02:14:01.404Z,19.85
2022-12-09T02:16:34.829Z,21.52
2022-12-09T02:19:05.333Z,20.73
2022-12-09T02:21:41.042Z,22.00
2022-12-09T02:24:43.438Z,18.85
2022-12-09T02:27:23.572Z,20.23
2022-12-09T02:30:18.329Z,22.08
2022-12-09T02:33:07.285Z,20.13
2022-12-09T02:36:01.542Z,22.40
2022-12-09T02:38:32.512Z,22.77
2022-12-09T02:41:03.639Z,21.95
2022-12-09T02:43:38.015Z,19.10
2022-12-09T02:46:09.064Z,20.55
2022-12-09T02:48:43.047Z,21.73
2022-12-09T02:51:15.264Z,23.65
2022-12-09T02:53:46.733Z,20.70
2022-12-09T02:56:15.732Z,19.23
2022-12-09T02:58:43.486Z,24.30
2022-12-09T03:01:29.567Z,19.55
2022-12-09T03:03:57.458Z,20.73
2022-12-09T03:06:31.462Z,20.50
2022-12-09T03:09:24.101Z,18.70
2022-12-09T03:11:53.233Z,20.40
2022-12-09T03:14:40.335Z,19.02
2022-12-09T03:19:49.148Z,19.52
2022-12-09T03:22:20.211Z,19.52
2022-12-09T03:24:54.403Z,20.08
2022-12-09T03:27:38.312Z,19.85
2022-12-09T03:30:09.060Z,23.38
2022-12-09T03:32:39.199Z,18.73
2022-12-09T03:35:13.215Z,19.90
2022-12-09T03:37:44.270Z,20.40
2022-12-09T03:40:17.167Z,22.00
2022-12-09T03:42:58.984Z,20.33
2022-12-09T03:45:27.194Z,21.10
2022-12-09T03:47:55.678Z,22.17
2022-12-09T03:50:27.497Z,20.60
2022-12-09T03:53:05.870Z,21.60
2022-12-09T03:55:46.899Z,21.60
2022-12-09T03:58:16.558Z,20.10
2022-12-09T04:00:44.962Z,22.55
2022-12-09T04:03:14.753Z,20.88
2022-12-09T04:05:43.255Z,21.60
2022-12-09T04:08:11.460Z,22.38
2022-12-09T04:10:39.389Z,21.50
2022-12-09T04:13:07.341Z,20.02
2022-12-09T04:15:34.779Z,24.60
2022-12-09T04:20:29.777Z,20.58
2022-12-09T04:25:25.542Z,19.70
2022-12-09T04:27:53.110Z,22.20
2022-12-09T04:32:48.535Z,22.25
2022-12-09T04:35:16.292Z,23.35
2022-12-09T04:37:43.915Z,23.77
2022-12-09T04:42:44.238Z,22.20
2022-12-09T04:47:39.847Z,23.73
2022-12-09T04:50:08.073Z,22.50
2022-12-09T04:52:36.098Z,21.98
2022-12-09T04:55:03.907Z,24.38
2022-12-09T04:57:31.472Z,23.30
2022-12-09T05:07:23.891Z,24.15
2022-12-09T05:09:51.630Z,28.70
2022-12-09T05:12:19.449Z,22.27
2022-12-09T05:14:46.982Z,22.88
2022-12-09T05:19:42.078Z,23.38
2022-12-09T05:24:37.106Z,26.40
2022-12-09T05:29:32.044Z,24.10
2022-12-09T05:31:59.600Z,24.83
2022-12-09T05:34:27.662Z,23.92
2022-12-09T05:36:55.660Z,26.02
2022-12-09T05:39:23.955Z,23.13
2022-12-09T05:41:51.716Z,23.65
2022-12-09T05:44:19.452Z,25.90
2022-12-09T05:46:47.151Z,25.17
2022-12-09T05:49:15.245Z,23.42
2022-12-09T05:51:43.248Z,27.58
2022-12-09T05:54:11.147Z,25.67
2022-12-09T05:56:42.840Z,29.35
2022-12-09T05:59:13.859Z,28.42
2022-12-09T06:01:41.419Z,23.23
2022-12-09T06:04:09.336Z,25.35
2022-12-09T06:06:37.260Z,25.73
2022-12-09T06:09:11.593Z,25.58
2022-12-09T06:11:41.148Z,24.55
2022-12-09T06:14:10.177Z,27.58
2022-12-09T06:16:38.813Z,23.83
2022-12-09T06:19:06.802Z,23.65
2022-12-09T06:21:34.726Z,25.38
2022-12-09T06:24:02.537Z,23.88
2022-12-09T06:26:30.723Z,24.35
2022-12-09T06:28:59.794Z,26.95
2022-12-09T06:31:28.646Z,25.13
2022-12-09T06:33:58.448Z,26.05
2022-12-09T06:36:29.626Z,23.88
2022-12-09T06:39:05.860Z,24.52
2022-12-09T06:41:37.266Z,26.60
2022-12-09T06:44:04.956Z,23.60
2022-12-09T06:46:32.831Z,25.33
2022-12-09T06:49:01.004Z,23.85
2022-12-09T06:51:30.196Z,25.92
2022-12-09T06:53:58.049Z,26.08
2022-12-09T06:56:26.177Z,26.33
2022-12-09T06:58:53.719Z,24.40
2022-12-09T07:01:24.859Z,25.35
2022-12-09T07:03:56.653Z,24.95
2022-12-09T07:06:39.157Z,25.48
2022-12-09T07:09:13.447Z,24.00
2022-12-09T07:11:47.268Z,28.52
2022-12-09T07:14:16.857Z,26.27
2022-12-09T07:16:45.338Z,25.08
2022-12-09T07:19:18.356Z,26.38
2022-12-09T07:21:47.013Z,26.60
2022-12-09T07:24:15.295Z,25.15
2022-12-09T07:26:43.388Z,28.60
2022-12-09T07:29:11.142Z,26.08
2022-12-09T07:31:39.037Z,27.58
2022-12-09T07:34:07.030Z,28.42
2022-12-09T07:36:35.853Z,26.58
2022-12-09T07:39:15.422Z,25.13
2022-12-09T07:41:43.414Z,27.75
2022-12-09T07:44:12.740Z,29.90
2022-12-09T07:46:40.852Z,26.42
2022-12-09T07:49:10.951Z,25.17
2022-12-09T07:51:40.222Z,27.45
2022-12-09T07:54:11.842Z,33.25
2022-12-09T07:56:39.709Z,26.52
2022-12-09T07:59:09.708Z,26.73
2022-12-09T08:01:37.840Z,28.40
2022-12-09T08:04:06.503Z,30.08
2022-12-09T08:06:36.116Z,27.10
2022-12-09T08:09:07.354Z,28.40
2022-12-09T08:11:35.964Z,27.15
2022-12-09T08:14:10.994Z,29.98
2022-12-09T08:16:41.879Z,26.17
2022-12-09T08:19:10.358Z,27.13
2022-12-09T08:21:39.027Z,26.23
2022-12-09T08:24:08.020Z,28.95
2022-12-09T08:26:37.637Z,23.15
2022-12-09T08:29:11.082Z,27.15
2022-12-09T08:31:42.376Z,24.23
2022-12-09T08:34:11.144Z,25.13
2022-12-09T08:36:39.286Z,24.48
2022-12-09T08:39:07.853Z,23.33
2022-12-09T08:41:38.602Z,25.48
2022-12-09T08:44:08.172Z,24.42
2022-12-09T08:46:38.042Z,25.67
2022-12-09T08:49:07.309Z,26.35
2022-12-09T08:51:35.860Z,23.77
2022-12-09T08:54:05.083Z,26.27
2022-12-09T08:56:32.815Z,23.85
2022-12-09T08:59:00.618Z,28.85
2022-12-09T09:01:35.358Z,24.95
2022-12-09T09:04:09.889Z,23.48
2022-12-09T09:06:40.936Z,24.38
2022-12-09T09:09:10.877Z,23.63
2022-12-09T09:11:39.449Z,22.88
2022-12-09T09:14:09.554Z,23.45
2022-12-09T09:16:40.026Z,23.30
2022-12-09T09:19:08.942Z,25.95
2022-12-09T09:21:37.003Z,23.13
2022-12-09T09:24:12.927Z,27.50
2022-12-09T09:26:43.505Z,23.52
2022-12-09T09:29:13.486Z,24.77
2022-12-09T09:31:41.285Z,22.30
2022-12-09T09:34:10.219Z,24.00
2022-12-09T09:36:37.876Z,27.73
2022-12-09T09:41:53.634Z,24.55
2022-12-09T09:44:28.137Z,25.80
2022-12-09T09:46:57.643Z,24.73
2022-12-09T09:50:01.973Z,22.90
2022-12-09T09:52:31.736Z,27.20
2022-12-09T09:54:59.502Z,23.15
2022-12-09T09:57:41.145Z,25.00
2022-12-09T10:00:28.863Z,25.77
2022-12-09T10:03:14.130Z,24.05
2022-12-09T10:06:09.798Z,24.73
2022-12-09T10:08:49.633Z,24.33
2022-12-09T10:11:23.848Z,23.55
2022-12-09T10:13:58.921Z,23.48
2022-12-09T10:16:34.769Z,24.42
2022-12-09T10:19:30.994Z,22.45
2022-12-09T10:22:02.511Z,27.50
2022-12-09T10:24:40.161Z,23.30
2022-12-09T10:27:38.088Z,24.90
2022-12-09T10:30:14.531Z,25.23
2022-12-09T10:32:43.440Z,25.52
2022-12-09T10:35:23.951Z,23.77
2022-12-09T10:37:54.201Z,23.55
2022-12-09T10:40:50.462Z,21.20
2022-12-09T10:43:35.267Z,22.88
2022-12-09T10:46:17.909Z,22.33
2022-12-09T10:48:47.464Z,23.05
2022-12-09T10:51:21.694Z,24.63
2022-12-09T10:54:00.058Z,21.40
2022-12-09T10:56:37.740Z,22.63
2022-12-09T10:59:19.611Z,20.92
2022-12-09T11:01:52.975Z,22.50
2022-12-09T11:04:26.547Z,19.25
2022-12-09T11:07:00.151Z,22.15
2022-12-09T11:09:34.482Z,20.92
2022-12-09T11:12:05.971Z,20.65
2022-12-09T11:14:40.569Z,21.60
2022-12-09T11:17:22.614Z,20.58
2022-12-09T11:19:53.520Z,19.92
2022-12-09T11:22:33.476Z,18.08
2022-12-09T11:25:16.552Z,19.90
2022-12-09T11:27:52.285Z,20.95
2022-12-09T11:30:30.790Z,18.08
2022-12-09T11:33:07.898Z,18.92
2022-12-09T11:35:52.847Z,15.90
2022-12-09T11:38:41.703Z,19.70
2022-12-09T11:41:12.295Z,18.90
2022-12-09T11:43:47.730Z,18.00
2022-12-09T11:46:15.218Z,16.00
2022-12-09T11:48:56.728Z,19.10
2022-12-09T11:51:26.956Z,19.77
2022-12-09T11:54:03.675Z,20.92
2022-12-09T11:56:33.132Z,17.15
2022-12-09T11:59:06.828Z,18.85
2022-12-09T12:02:05.969Z,17.13
2022-12-09T12:04:39.414Z,15.88
2022-12-09T12:07:21.317Z,18.00
2022-12-09T12:09:57.528Z,18.95
2022-12-09T12:12:30.815Z,17.38
2022-12-09T12:15:10.725Z,19.35
2022-12-09T12:17:43.469Z,15.57
2022-12-09T12:20:13.375Z,16.15
2022-12-09T12:23:16.514Z,16.13
2022-12-09T12:25:54.275Z,16.98
2022-12-09T12:28:39.586Z,16.73
2022-12-09T12:31:58.113Z,18.70
2022-12-09T12:34:40.562Z,15.02
2022-12-09T12:37:39.065Z,18.25
2022-12-09T12:40:07.355Z,17.75
2022-12-09T12:43:07.293Z,17.65
2022-12-09T12:46:17.342Z,15.57
2022-12-09T12:49:00.270Z,16.20
2022-12-09T12:51:58.219Z,17.67
2022-12-09T12:54:49.734Z,20.35
2022-12-09T12:57:23.974Z,16.65
2022-12-09T12:59:54.703Z,21.15
2022-12-09T13:02:31.440Z,17.60
2022-12-09T13:05:12.056Z,16.58
2022-12-09T13:08:16.224Z,17.75
2022-12-09T13:10:55.851Z,17.88
2022-12-09T13:13:39.789Z,20.77
2022-12-09T13:16:16.616Z,18.40
2022-12-09T13:18:45.233Z,18.45
2022-12-09T13:21:13.323Z,20.52
2022-12-09T13:23:55.592Z,18.08
2022-12-09T13:26:44.981Z,19.48
2022-12-09T13:29:36.180Z,18.52
2022-12-09T13:32:28.065Z,21.13
2022-12-09T13:35:04.982Z,19.88
2022-12-09T13:37:44.618Z,19.30
2022-12-09T13:40:21.304Z,21.90
2022-12-09T13:42:53.198Z,17.35
2022-12-09T13:45:23.857Z,18.27
2022-12-09T13:47:54.886Z,17.70
2022-12-09T13:50:39.777Z,19.33
2022-12-09T13:53:27.537Z,16.85
2022-12-09T13:55:59.136Z,18.25
2022-12-09T13:58:33.008Z,17.75
2022-12-09T14:01:12.372Z,19.05
2022-12-09T14:04:01.563Z,20.42
2022-12-09T14:06:47.318Z,18.65
2022-12-09T14:09:43.147Z,16.90
2022-12-09T14:12:13.672Z,18.05
2022-12-09T14:14:44.064Z,19.17
2022-12-09T14:17:29.024Z,16.63
2022-12-09T14:20:18.476Z,16.55
2022-12-09T14:23:09.878Z,16.98
2022-12-09T14:25:37.394Z,19.02
2022-12-09T14:30:52.186Z,16.00
2022-12-09T14:33:29.713Z,12.75
2022-12-09T14:36:13.221Z,13.35
2022-12-09T14:39:24.351Z,17.73
2022-12-09T14:41:52.689Z,17.13
2022-12-09T14:47:15.925Z,15.00
2022-12-09T14:49:49.151Z,11.40
2022-12-09T14:52:32.261Z,14.65
2022-12-09T14:55:03.309Z,13.63
2022-12-09T14:57:37.276Z,14.15
2022-12-09T15:00:06.947Z,12.57
2022-12-09T15:02:34.929Z,12.68
2022-12-09T15:05:03.304Z,14.20
2022-12-09T15:07:33.025Z,13.65
2022-12-09T15:10:06.316Z,13.18
2022-12-09T15:13:03.831Z,11.80
2022-12-09T15:15:33.059Z,12.50
2022-12-09T15:18:05.062Z,13.18
2022-12-09T15:20:36.695Z,11.38
2022-12-09T15:23:20.757Z,13.55
2022-12-09T15:25:52.622Z,13.10
2022-12-09T15:28:26.555Z,14.23
2022-12-09T15:31:03.039Z,14.13
2022-12-09T15:33:39.976Z,14.83
2022-12-09T15:36:15.219Z,15.63
2022-12-09T15:38:49.593Z,16.10
2022-12-09T15:41:37.512Z,15.60
2022-12-09T15:44:11.337Z,13.82
2022-12-09T15:46:42.067Z,15.48
2022-12-09T15:49:13.973Z,16.60
2022-12-09T15:51:44.545Z,15.07
2022-12-09T15:54:18.971Z,16.27
2022-12-09T15:57:14.898Z,13.43
2022-12-09T15:59:47.764Z,14.25
2022-12-09T16:02:28.189Z,18.58
2022-12-09T16:07:25.383Z,16.75
2022-12-09T16:10:07.322Z,18.00
2022-12-09T16:12:36.563Z,17.38
2022-12-09T16:15:06.980Z,17.17
2022-12-09T16:17:52.404Z,19.77
2022-12-09T16:20:32.537Z,15.65
2022-12-09T16:23:01.973Z,19.55
2022-12-09T16:25:35.696Z,18.63
2022-12-09T16:28:05.886Z,17.88
2022-12-09T16:30:45.782Z,19.40
2022-12-09T16:33:19.542Z,15.73
2022-12-09T16:36:02.339Z,20.10
2022-12-09T16:38:32.650Z,19.92
2022-12-09T16:41:11.718Z,16.88
2022-12-09T16:43:54.437Z,18.00
2022-12-09T16:46:41.554Z,17.20
2022-12-09T16:49:09.132Z,18.73
2022-12-09T16:54:18.093Z,17.25
2022-12-09T16:56:48.157Z,19.15
2022-12-09T16:59:15.602Z,20.17
2022-12-09T17:04:18.023Z,20.45
2022-12-09T17:06:45.964Z,22.25
2022-12-09T17:09:13.659Z,20.50
2022-12-09T17:11:46.967Z,21.83
2022-12-09T17:14:16.686Z,20.33
2022-12-09T17:16:44.577Z,22.25
2022-12-09T17:19:13.348Z,18.88
2022-12-09T17:24:10.122Z,21.70
2022-12-09T17:26:37.709Z,22.00
2022-12-09T17:29:07.256Z,19.92
2022-12-09T17:31:34.841Z,22.60
2022-12-09T17:34:02.410Z,21.45
